createdAt,value
2023-03-19T00:02:17.212Z,2.38
2023-03-19T00:04:46.182Z,2.05
2023-03-19T00:07:13.878Z,1.88
2023-03-19T00:09:41.166Z,1.70
2023-03-19T00:12:08.658Z,2.13
2023-03-19T00:14:35.688Z,1.73
2023-03-19T00:17:03.102Z,2.08
2023-03-19T00:19:30.449Z,1.85
2023-03-19T00:21:57.339Z,2.45
2023-03-19T00:24:24.813Z,2.10
2023-03-19T00:26:51.809Z,2.30
2023-03-19T00:29:19.086Z,2.08
2023-03-19T00:31:46.455Z,1.77
2023-03-19T00:34:14.251Z,2.10
2023-03-19T00:36:41.535Z,2.30
2023-03-19T00:39:09.222Z,1.95
2023-03-19T00:41:36.251Z,1.90
2023-03-19T00:44:04.126Z,1.80
2023-03-19T00:46:31.475Z,1.60
2023-03-19T00:48:58.945Z,1.42
2023-03-19T00:51:26.398Z,1.65
2023-03-19T00:53:54.195Z,2.03
2023-03-19T00:56:21.291Z,1.90
2023-03-19T00:58:48.617Z,1.65
2023-03-19T01:01:17.837Z,1.50
2023-03-19T01:03:46.198Z,1.83
2023-03-19T01:06:13.652Z,1.73
2023-03-19T01:08:41.390Z,1.73
2023-03-19T01:11:14.621Z,1.60
2023-03-19T01:13:42.279Z,1.63
2023-03-19T01:16:10.422Z,1.40
2023-03-19T01:18:38.085Z,1.63
2023-03-19T01:21:06.314Z,1.92
2023-03-19T01:23:36.300Z,1.80
2023-03-19T01:26:03.245Z,1.73
2023-03-19T01:28:30.984Z,1.83
2023-03-19T01:31:02.895Z,2.00
2023-03-19T01:33:39.364Z,1.40
2023-03-19T01:36:21.486Z,1.67
2023-03-19T01:39:00.045Z,1.55
2023-03-19T01:41:27.387Z,1.77
2023-03-19T01:43:58.962Z,1.58
2023-03-19T01:46:39.748Z,1.30
2023-03-19T01:49:13.923Z,1.52
2023-03-19T01:51:46.542Z,1.73
2023-03-19T01:54:32.935Z,1.77
2023-03-19T01:57:26.197Z,1.55
2023-03-19T02:00:08.326Z,1.27
2023-03-19T02:02:47.526Z,1.40
2023-03-19T02:05:35.867Z,1.50
2023-03-19T02:08:08.999Z,1.48
2023-03-19T02:10:36.766Z,1.70
2023-03-19T02:13:04.575Z,1.73
2023-03-19T02:15:32.091Z,1.55
2023-03-19T02:17:58.985Z,1.52
2023-03-19T02:20:32.274Z,1.70
2023-03-19T02:23:23.582Z,1.88
2023-03-19T02:25:59.041Z,1.50
2023-03-19T02:28:26.450Z,1.77
2023-03-19T02:30:54.540Z,1.63
2023-03-19T02:33:22.093Z,1.60
2023-03-19T02:35:51.996Z,1.90
2023-03-19T02:38:22.464Z,1.70
2023-03-19T02:41:01.673Z,1.83
2023-03-19T02:43:29.808Z,1.52
2023-03-19T02:45:57.579Z,1.77
2023-03-19T02:48:24.923Z,1.50
2023-03-19T02:50:52.229Z,1.40
2023-03-19T02:53:19.849Z,1.63
2023-03-19T02:55:47.155Z,1.48
2023-03-19T02:58:14.442Z,1.75
2023-03-19T03:00:42.598Z,1.52
2023-03-19T03:03:09.490Z,1.58
2023-03-19T03:05:36.836Z,1.60
2023-03-19T03:08:04.703Z,1.75
2023-03-19T03:10:33.161Z,1.67
2023-03-19T03:13:01.270Z,1.67
2023-03-19T03:15:28.577Z,1.40
2023-03-19T03:17:56.912Z,1.45
2023-03-19T03:20:24.772Z,1.90
2023-03-19T03:22:53.642Z,1.70
2023-03-19T03:25:21.224Z,1.75
2023-03-19T03:27:48.521Z,1.80
2023-03-19T03:30:16.247Z,1.85
2023-03-19T03:32:43.870Z,2.25
2023-03-19T03:35:11.255Z,2.05
2023-03-19T03:37:39.673Z,2.17
2023-03-19T03:40:08.085Z,2.42
2023-03-19T03:42:37.391Z,2.38
2023-03-19T03:45:07.366Z,2.42
2023-03-19T03:47:34.457Z,2.17
2023-03-19T03:50:02.101Z,1.75
2023-03-19T03:52:31.518Z,1.85
2023-03-19T03:54:58.740Z,1.75
2023-03-19T03:57:27.555Z,1.88
2023-03-19T03:59:56.178Z,2.03
2023-03-19T04:02:25.140Z,2.60
2023-03-19T04:04:52.991Z,2.30
2023-03-19T04:07:20.694Z,2.90
2023-03-19T04:09:53.484Z,1.98
2023-03-19T04:12:20.987Z,2.13
2023-03-19T04:14:48.424Z,2.10
2023-03-19T04:17:15.646Z,2.22
2023-03-19T04:19:44.114Z,1.88
2023-03-19T04:22:11.569Z,1.92
2023-03-19T04:24:38.906Z,2.25
2023-03-19T04:27:07.505Z,1.80
2023-03-19T04:29:36.266Z,2.15
2023-03-19T04:32:04.002Z,2.08
2023-03-19T04:34:31.901Z,2.10
2023-03-19T04:36:58.884Z,1.63
2023-03-19T04:39:26.423Z,2.15
2023-03-19T04:41:53.362Z,2.03
2023-03-19T04:44:31.078Z,2.08
2023-03-19T04:47:01.317Z,1.73
2023-03-19T04:49:32.193Z,1.75
2023-03-19T04:51:59.566Z,2.00
2023-03-19T04:54:27.650Z,2.00
2023-03-19T04:56:55.102Z,1.88
2023-03-19T04:59:24.476Z,1.70
2023-03-19T05:01:51.821Z,1.92
2023-03-19T05:04:24.019Z,2.13
2023-03-19T05:06:53.986Z,2.17
2023-03-19T05:09:20.827Z,1.75
2023-03-19T05:11:48.016Z,1.73
2023-03-19T05:14:19.674Z,1.55
2023-03-19T05:17:03.354Z,1.67
2023-03-19T05:19:40.727Z,1.75
2023-03-19T05:22:09.650Z,1.70
2023-03-19T05:24:36.921Z,2.25
2023-03-19T05:27:04.274Z,1.70
2023-03-19T05:30:11.032Z,2.00
2023-03-19T05:33:03.606Z,1.60
2023-03-19T05:35:41.030Z,1.77
2023-03-19T05:38:16.210Z,2.10
2023-03-19T05:40:47.426Z,1.67
2023-03-19T05:43:23.944Z,1.70
2023-03-19T05:45:52.932Z,1.70
2023-03-19T05:48:24.395Z,2.63
2023-03-19T05:50:52.745Z,2.15
2023-03-19T05:53:22.710Z,1.60
2023-03-19T05:56:13.143Z,2.33
2023-03-19T05:58:53.249Z,1.75
2023-03-19T06:01:25.494Z,1.95
2023-03-19T06:03:52.620Z,2.15
2023-03-19T06:06:19.982Z,1.80
2023-03-19T06:08:51.980Z,2.50
2023-03-19T06:11:45.400Z,2.13
2023-03-19T06:14:31.275Z,2.17
2023-03-19T06:17:27.562Z,2.05
2023-03-19T06:19:58.275Z,1.83
2023-03-19T06:22:25.524Z,2.70
2023-03-19T06:24:52.881Z,2.45
2023-03-19T06:27:21.070Z,2.42
2023-03-19T06:29:48.636Z,2.28
2023-03-19T06:32:27.055Z,2.42
2023-03-19T06:34:56.586Z,2.28
2023-03-19T06:37:24.218Z,2.47
2023-03-19T06:39:51.512Z,2.67
2023-03-19T06:42:18.619Z,2.25
2023-03-19T06:44:46.158Z,2.47
2023-03-19T06:47:14.376Z,2.35
2023-03-19T06:49:42.574Z,2.15
2023-03-19T06:52:09.510Z,2.67
2023-03-19T06:54:38.455Z,2.53
2023-03-19T06:57:06.461Z,2.63
2023-03-19T06:59:34.089Z,2.50
2023-03-19T07:02:05.517Z,2.38
2023-03-19T07:04:32.753Z,1.90
2023-03-19T07:07:00.505Z,2.17
2023-03-19T07:09:27.560Z,2.55
2023-03-19T07:11:54.963Z,1.77
2023-03-19T07:14:22.211Z,1.92
2023-03-19T07:16:49.496Z,2.30
2023-03-19T07:19:17.446Z,2.30
2023-03-19T07:21:44.713Z,1.85
2023-03-19T07:24:11.606Z,2.00
2023-03-19T07:26:38.479Z,2.05
2023-03-19T07:29:06.354Z,1.98
2023-03-19T07:31:33.754Z,2.38
2023-03-19T07:34:01.135Z,1.90
2023-03-19T07:36:28.056Z,2.10
2023-03-19T07:38:55.333Z,1.70
2023-03-19T07:41:22.165Z,1.80
2023-03-19T07:43:49.600Z,2.22
2023-03-19T07:46:17.218Z,1.58
2023-03-19T07:48:44.746Z,2.00
2023-03-19T07:51:11.626Z,2.10
2023-03-19T07:53:38.907Z,1.98
2023-03-19T07:56:06.469Z,1.90
2023-03-19T07:58:33.703Z,2.28
2023-03-19T08:01:00.665Z,1.88
2023-03-19T08:03:27.455Z,1.75
2023-03-19T08:05:54.743Z,1.83
2023-03-19T08:08:22.194Z,2.20
2023-03-19T08:10:50.909Z,2.05
2023-03-19T08:13:18.184Z,2.88
2023-03-19T08:15:45.497Z,2.03
2023-03-19T08:18:12.468Z,1.90
2023-03-19T08:20:39.803Z,1.90
2023-03-19T08:23:07.317Z,1.73
2023-03-19T08:25:34.554Z,1.67
2023-03-19T08:28:01.833Z,1.85
2023-03-19T08:30:29.246Z,2.13
2023-03-19T08:32:56.754Z,2.10
2023-03-19T08:35:24.172Z,2.30
2023-03-19T08:37:51.439Z,2.22
2023-03-19T08:40:18.693Z,2.42
2023-03-19T08:42:46.266Z,2.28
2023-03-19T08:45:15.412Z,2.00
2023-03-19T08:47:43.190Z,2.40
2023-03-19T08:50:11.482Z,2.63
2023-03-19T08:52:38.679Z,2.40
2023-03-19T08:55:06.196Z,2.50
2023-03-19T08:57:33.378Z,2.47
2023-03-19T09:00:01.009Z,2.42
2023-03-19T09:02:28.921Z,1.77
2023-03-19T09:04:55.758Z,2.38
2023-03-19T09:07:22.770Z,2.35
2023-03-19T09:09:49.654Z,1.80
2023-03-19T09:12:17.609Z,2.40
2023-03-19T09:14:44.538Z,1.75
2023-03-19T09:17:13.529Z,1.55
2023-03-19T09:19:41.669Z,1.70
2023-03-19T09:22:08.962Z,2.13
2023-03-19T09:24:38.741Z,1.40
2023-03-19T09:27:07.366Z,1.83
2023-03-19T09:29:34.904Z,1.70
2023-03-19T09:32:02.159Z,1.85
2023-03-19T09:34:29.446Z,1.58
2023-03-19T09:36:56.741Z,2.03
2023-03-19T09:39:23.622Z,2.17
2023-03-19T09:42:23.188Z,1.98
2023-03-19T09:44:53.294Z,1.65
2023-03-19T09:47:35.449Z,1.60
2023-03-19T09:50:24.185Z,1.38
2023-03-19T09:53:41.751Z,1.52
2023-03-19T09:56:14.718Z,1.42
2023-03-19T09:58:42.247Z,1.25
2023-03-19T10:01:27.464Z,1.63
2023-03-19T10:04:07.225Z,1.55
2023-03-19T10:06:35.645Z,1.38
2023-03-19T10:09:40.277Z,1.45
2023-03-19T10:12:44.262Z,1.85
2023-03-19T10:15:30.336Z,1.90
2023-03-19T10:18:12.316Z,1.67
2023-03-19T10:21:05.831Z,2.00
2023-03-19T10:23:44.709Z,1.83
2023-03-19T10:26:21.675Z,1.60
2023-03-19T10:29:02.742Z,1.85
2023-03-19T10:31:45.606Z,1.70
2023-03-19T10:34:24.255Z,1.55
2023-03-19T10:37:03.708Z,2.22
2023-03-19T10:39:36.754Z,2.05
2023-03-19T10:42:31.969Z,1.88
2023-03-19T10:45:28.158Z,1.48
2023-03-19T10:47:57.292Z,1.95
2023-03-19T10:50:52.973Z,1.52
2023-03-19T10:53:20.434Z,2.00
2023-03-19T10:55:54.018Z,1.83
2023-03-19T10:58:26.090Z,1.80
2023-03-19T11:01:10.906Z,1.88
2023-03-19T11:03:40.855Z,1.75
2023-03-19T11:06:17.692Z,2.05
2023-03-19T11:08:56.178Z,1.67
2023-03-19T11:11:42.505Z,1.40
2023-03-19T11:14:22.250Z,1.85
2023-03-19T11:17:04.729Z,1.60
2023-03-19T11:19:38.962Z,1.52
2023-03-19T11:22:06.446Z,1.40
2023-03-19T11:24:36.345Z,1.52
2023-03-19T11:27:03.480Z,1.90
2023-03-19T11:29:30.836Z,1.50
2023-03-19T11:32:22.643Z,1.48
2023-03-19T11:35:03.162Z,1.70
2023-03-19T11:38:00.737Z,1.85
2023-03-19T11:41:02.570Z,1.50
2023-03-19T11:43:50.402Z,1.60
2023-03-19T11:46:39.346Z,1.67
2023-03-19T11:49:21.760Z,1.60
2023-03-19T11:52:05.488Z,1.58
2023-03-19T11:54:32.269Z,2.05
2023-03-19T11:57:18.157Z,2.33
2023-03-19T12:00:01.212Z,1.83
2023-03-19T12:02:51.557Z,1.45
2023-03-19T12:05:27.541Z,1.35
2023-03-19T12:08:00.420Z,1.70
2023-03-19T12:10:51.055Z,2.15
2023-03-19T12:13:51.428Z,1.85
2023-03-19T12:16:46.191Z,1.80
2023-03-19T12:19:46.000Z,1.67
2023-03-19T12:22:27.870Z,1.60
2023-03-19T12:25:00.924Z,1.60
2023-03-19T12:27:41.599Z,1.40
2023-03-19T12:30:30.712Z,1.50
2023-03-19T12:33:10.887Z,1.70
2023-03-19T12:35:40.828Z,1.85
2023-03-19T12:38:26.818Z,1.40
2023-03-19T12:41:03.623Z,1.70
2023-03-19T12:44:12.298Z,1.50
2023-03-19T12:47:02.289Z,1.48
2023-03-19T12:49:47.605Z,1.40
2023-03-19T12:52:14.851Z,2.17
2023-03-19T12:54:45.902Z,2.30
2023-03-19T12:57:56.493Z,1.90
2023-03-19T13:00:38.832Z,2.22
2023-03-19T13:03:06.144Z,1.88
2023-03-19T13:05:41.637Z,1.90
2023-03-19T13:08:19.147Z,1.65
2023-03-19T13:10:46.102Z,2.30
2023-03-19T13:13:31.055Z,2.40
2023-03-19T13:16:43.578Z,2.50
2023-03-19T13:19:30.742Z,2.03
2023-03-19T13:22:04.328Z,1.58
2023-03-19T13:24:38.422Z,1.85
2023-03-19T13:27:09.703Z,1.30
2023-03-19T13:29:38.898Z,1.58
2023-03-19T13:32:42.301Z,1.40
2023-03-19T13:35:37.172Z,1.55
2023-03-19T13:38:24.617Z,1.30
2023-03-19T13:40:59.446Z,1.40
2023-03-19T13:43:29.447Z,1.10
2023-03-19T13:46:39.582Z,1.45
2023-03-19T13:49:10.858Z,1.42
2023-03-19T13:51:38.152Z,1.77
2023-03-19T13:54:08.147Z,1.70
2023-03-19T13:57:01.630Z,1.90
2023-03-19T13:59:41.134Z,2.00
2023-03-19T14:02:24.046Z,1.65
2023-03-19T14:04:58.682Z,2.00
2023-03-19T14:07:30.361Z,2.17
2023-03-19T14:09:57.569Z,1.75
2023-03-19T14:12:32.628Z,1.67
2023-03-19T14:15:08.302Z,2.00
2023-03-19T14:17:56.563Z,1.48
2023-03-19T14:20:37.639Z,1.52
2023-03-19T14:23:11.371Z,1.73
2023-03-19T14:26:09.604Z,1.60
2023-03-19T14:28:51.262Z,1.38
2023-03-19T14:31:33.189Z,1.38
2023-03-19T14:34:26.024Z,1.55
2023-03-19T14:37:08.476Z,2.30
2023-03-19T14:39:47.799Z,2.40
2023-03-19T14:42:39.078Z,2.55
2023-03-19T14:45:24.779Z,2.10
2023-03-19T14:48:32.009Z,2.00
2023-03-19T14:51:17.093Z,2.22
2023-03-19T14:53:46.954Z,2.22
2023-03-19T14:56:16.855Z,6.22
2023-03-19T14:58:58.325Z,3.53
2023-03-19T15:01:27.142Z,2.45
2023-03-19T15:04:01.071Z,1.88
2023-03-19T15:06:33.770Z,1.83
2023-03-19T15:09:02.551Z,1.48
2023-03-19T15:12:07.914Z,1.10
2023-03-19T15:14:54.814Z,0.93
2023-03-19T15:17:32.455Z,0.70
2023-03-19T15:20:02.001Z,1.48
2023-03-19T15:22:34.406Z,0.73
2023-03-19T15:25:10.573Z,0.82
2023-03-19T15:27:37.957Z,0.65
2023-03-19T15:30:21.541Z,0.73
2023-03-19T15:33:02.933Z,0.70
2023-03-19T15:35:36.602Z,0.47
2023-03-19T15:38:10.767Z,0.68
2023-03-19T15:40:38.994Z,0.60
2023-03-19T15:43:06.147Z,0.60
2023-03-19T15:45:34.425Z,0.43
2023-03-19T15:48:06.718Z,0.40
2023-03-19T15:50:37.318Z,0.60
2023-03-19T15:53:10.674Z,0.38
2023-03-19T15:55:38.163Z,0.40
2023-03-19T15:58:12.445Z,0.50
2023-03-19T16:00:41.365Z,0.50
2023-03-19T16:03:33.051Z,0.55
2023-03-19T16:06:03.527Z,0.50
2023-03-19T16:08:31.511Z,0.70
2023-03-19T16:11:16.545Z,0.75
2023-03-19T16:13:54.542Z,0.50
2023-03-19T16:16:23.841Z,0.60
2023-03-19T16:18:53.477Z,0.40
2023-03-19T16:21:28.492Z,0.70
2023-03-19T16:23:59.434Z,0.47
2023-03-19T16:26:46.694Z,0.68
2023-03-19T16:29:59.317Z,0.75
2023-03-19T16:32:28.820Z,0.90
2023-03-19T16:35:15.418Z,0.70
2023-03-19T16:37:45.002Z,0.65
2023-03-19T16:40:11.852Z,0.80
2023-03-19T16:42:45.772Z,0.60
2023-03-19T16:45:18.471Z,0.63
2023-03-19T16:47:57.214Z,0.57
2023-03-19T16:50:30.673Z,0.70
2023-03-19T16:52:59.688Z,0.57
2023-03-19T16:55:35.561Z,0.60
2023-03-19T17:00:49.776Z,0.70
2023-03-19T17:03:18.533Z,0.70
2023-03-19T17:05:47.039Z,0.70
2023-03-19T17:08:14.636Z,0.70
2023-03-19T17:10:45.873Z,1.00
2023-03-19T17:13:19.819Z,0.73
2023-03-19T17:15:48.494Z,0.82
2023-03-19T17:18:31.418Z,1.02
2023-03-19T17:21:04.658Z,1.20
2023-03-19T17:23:32.432Z,0.95
2023-03-19T17:25:59.420Z,0.88
2023-03-19T17:28:26.293Z,1.05
2023-03-19T17:30:53.279Z,1.30
2023-03-19T17:33:29.825Z,1.08
2023-03-19T17:35:58.586Z,1.00
2023-03-19T17:38:35.450Z,1.10
2023-03-19T17:41:03.467Z,1.50
2023-03-19T17:43:30.773Z,1.30
2023-03-19T17:45:57.755Z,0.90
2023-03-19T17:48:26.611Z,0.95
2023-03-19T17:50:58.771Z,1.00
2023-03-19T17:53:26.957Z,1.23
2023-03-19T17:55:54.064Z,1.60
2023-03-19T17:58:22.609Z,2.10
2023-03-19T18:00:51.669Z,2.42
2023-03-19T18:03:22.110Z,2.80
2023-03-19T18:05:53.227Z,2.97
2023-03-19T18:08:23.947Z,2.95
2023-03-19T18:10:51.464Z,2.03
2023-03-19T18:13:19.139Z,1.30
2023-03-19T18:15:47.104Z,1.38
2023-03-19T18:18:18.923Z,1.15
2023-03-19T18:20:47.607Z,0.80
2023-03-19T18:23:18.346Z,1.00
2023-03-19T18:25:46.261Z,1.30
2023-03-19T18:28:13.359Z,1.35
2023-03-19T18:30:41.769Z,1.42
2023-03-19T18:33:16.813Z,1.23
2023-03-19T18:35:45.603Z,1.20
2023-03-19T18:38:21.589Z,1.15
2023-03-19T18:40:49.778Z,0.85
2023-03-19T18:43:17.128Z,1.00
2023-03-19T18:45:48.269Z,1.73
2023-03-19T18:48:23.266Z,2.35
2023-03-19T18:50:50.871Z,2.63
2023-03-19T18:53:18.465Z,3.42
2023-03-19T18:55:46.181Z,3.72
2023-03-19T18:58:20.486Z,4.07
2023-03-19T19:00:48.183Z,2.75
2023-03-19T19:03:18.431Z,1.88
2023-03-19T19:05:45.911Z,1.25
2023-03-19T19:08:18.793Z,1.10
2023-03-19T19:10:53.619Z,1.95
2023-03-19T19:13:29.029Z,2.22
2023-03-19T19:15:56.540Z,2.40
2023-03-19T19:18:26.226Z,1.98
2023-03-19T19:20:54.058Z,2.10
2023-03-19T19:23:22.341Z,2.15
2023-03-19T19:25:55.243Z,2.72
2023-03-19T19:28:30.551Z,3.88
2023-03-19T19:30:59.767Z,2.75
2023-03-19T19:33:34.814Z,2.65
2023-03-19T19:36:02.637Z,1.92
2023-03-19T19:38:30.461Z,1.50
2023-03-19T19:41:00.149Z,1.40
2023-03-19T19:43:31.204Z,1.00
2023-03-19T19:45:58.936Z,1.60
2023-03-19T19:48:27.892Z,1.20
2023-03-19T19:50:55.754Z,1.50
2023-03-19T19:53:29.451Z,1.23
2023-03-19T19:55:56.539Z,1.35
2023-03-19T19:58:27.632Z,1.20
2023-03-19T20:01:03.356Z,1.52
2023-03-19T20:03:33.615Z,1.27
2023-03-19T20:06:01.778Z,1.52
2023-03-19T20:08:29.180Z,1.33
2023-03-19T20:10:57.025Z,1.67
2023-03-19T20:13:27.949Z,1.60
2023-03-19T20:15:57.131Z,1.83
2023-03-19T20:18:30.722Z,1.75
2023-03-19T20:20:59.307Z,5.13
2023-03-19T20:23:26.718Z,3.80
2023-03-19T20:25:54.943Z,2.47
2023-03-19T20:28:32.541Z,1.60
2023-03-19T20:31:00.639Z,1.88
2023-03-19T20:33:28.324Z,1.98
2023-03-19T20:35:55.520Z,1.90
2023-03-19T20:38:22.500Z,1.88
2023-03-19T20:40:52.812Z,1.52
2023-03-19T20:43:30.789Z,1.77
2023-03-19T20:45:59.728Z,1.58
2023-03-19T20:48:27.656Z,1.50
2023-03-19T20:50:55.197Z,1.75
2023-03-19T20:53:22.578Z,1.48
2023-03-19T20:55:49.906Z,2.88
2023-03-19T20:58:31.543Z,1.90
2023-03-19T21:00:59.361Z,1.90
2023-03-19T21:03:28.963Z,1.60
2023-03-19T21:06:02.085Z,1.80
2023-03-19T21:08:35.012Z,1.30
2023-03-19T21:11:03.507Z,1.40
2023-03-19T21:13:31.929Z,1.80
2023-03-19T21:15:59.707Z,1.42
2023-03-19T21:18:27.044Z,1.88
2023-03-19T21:20:56.850Z,1.45
2023-03-19T21:23:37.263Z,1.33
2023-03-19T21:26:17.745Z,1.48
2023-03-19T21:28:46.912Z,1.38
2023-03-19T21:31:21.033Z,1.52
2023-03-19T21:33:58.818Z,1.55
2023-03-19T21:36:26.136Z,1.55
2023-03-19T21:38:53.406Z,1.27
2023-03-19T21:41:26.506Z,1.23
2023-03-19T21:44:00.984Z,1.13
2023-03-19T21:46:30.470Z,1.35
2023-03-19T21:48:58.728Z,1.27
2023-03-19T21:51:27.666Z,0.82
2023-03-19T21:53:55.005Z,1.45
2023-03-19T21:56:24.175Z,1.40
2023-03-19T21:58:52.943Z,1.10
2023-03-19T22:01:25.031Z,1.27
2023-03-19T22:03:53.794Z,1.52
2023-03-19T22:06:22.117Z,1.27
2023-03-19T22:08:49.649Z,1.00
2023-03-19T22:11:21.118Z,1.38
2023-03-19T22:13:48.515Z,1.33
2023-03-19T22:16:33.828Z,1.20
2023-03-19T22:19:01.711Z,1.10
2023-03-19T22:21:32.851Z,1.63
2023-03-19T22:24:00.352Z,1.25
2023-03-19T22:26:41.949Z,1.20
2023-03-19T22:29:14.931Z,1.27
2023-03-19T22:31:42.294Z,1.48
2023-03-19T22:34:16.730Z,1.33
2023-03-19T22:36:44.459Z,0.93
2023-03-19T22:39:11.749Z,1.23
2023-03-19T22:41:43.857Z,1.38
2023-03-19T22:44:18.492Z,1.35
2023-03-19T22:46:45.760Z,1.15
2023-03-19T22:49:15.412Z,1.35
2023-03-19T22:51:43.625Z,1.10
2023-03-19T22:54:12.000Z,1.27
2023-03-19T22:56:39.237Z,1.20
2023-03-19T22:59:06.063Z,1.17
2023-03-19T23:01:41.416Z,1.05
2023-03-19T23:04:23.855Z,0.90
2023-03-19T23:06:52.332Z,0.95
2023-03-19T23:09:24.641Z,1.02
2023-03-19T23:11:52.698Z,0.80
2023-03-19T23:14:35.492Z,1.20
2023-03-19T23:17:15.188Z,0.82
2023-03-19T23:19:42.414Z,1.02
2023-03-19T23:22:15.809Z,0.70
2023-03-19T23:24:44.655Z,1.50
2023-03-19T23:27:26.173Z,0.85
2023-03-19T23:29:53.680Z,1.00
2023-03-19T23:32:21.783Z,1.15
2023-03-19T23:34:59.454Z,1.13
2023-03-19T23:37:29.023Z,1.10
2023-03-19T23:39:56.305Z,1.23
2023-03-19T23:42:28.741Z,1.05
2023-03-19T23:44:59.368Z,1.00
2023-03-19T23:47:27.561Z,1.08
2023-03-19T23:49:54.749Z,1.08
2023-03-19T23:52:21.984Z,0.90
2023-03-19T23:54:49.195Z,1.08
2023-03-19T23:57:17.268Z,1.10
2023-03-19T23:59:47.903Z,1.10
